In Rescue
 
Open Full Screen Window  High Contrast Mode
Wind Gusting 00 knots
06
April 30, 2019 5:05 AM CDT
Present Weather: Light Rain
Weather Information
Wind Direction
  020 °
Wind Speed
  06 kt (7 mph)
Wind Gust
  00 kt (0 mph)
Altimeter
30.17 in
Visibility
10 SM
Temperature
06° C
43° F
Dewpoint
04° C
39° F
Humidity
87%
1hr Rain Fall
00.00 in.
24hr Rain Fall
00.00 in.
Sky Condition
Missing
VFR

METAR KJYG 301005Z AUTO 02006KT 10SM -RA 06/04 A3017 RMK AO2

FAA Disclaimer: The data displayed is for advisory purposes only and is not to be used for flight planning or operations.
Missing Cloud Data